sensor_id;sensor_type;location;lat;lon;timestamp;P1;durP1;ratioP1;P2;durP2;ratioP2
14748;SDS011;7466;53.574;9.976;2022-10-16T00:01:27;8.43;;;7.63;;
14748;SDS011;7466;53.574;9.976;2022-10-16T00:03:56;9.83;;;8.00;;
14748;SDS011;7466;53.574;9.976;2022-10-16T00:06:24;9.17;;;7.93;;
14748;SDS011;7466;53.574;9.976;2022-10-16T00:08:52;7.80;;;7.10;;
14748;SDS011;7466;53.574;9.976;2022-10-16T00:11:19;8.93;;;7.40;;
14748;SDS011;7466;53.574;9.976;2022-10-16T00:13:49;8.00;;;7.20;;
14748;SDS011;7466;53.574;9.976;2022-10-16T00:16:18;7.60;;;6.90;;
14748;SDS011;7466;53.574;9.976;2022-10-16T00:18:45;7.03;;;6.30;;
14748;SDS011;7466;53.574;9.976;2022-10-16T00:21:13;7.00;;;6.30;;
14748;SDS011;7466;53.574;9.976;2022-10-16T00:23:42;6.57;;;5.97;;
14748;SDS011;7466;53.574;9.976;2022-10-16T00:26:11;8.07;;;5.30;;
14748;SDS011;7466;53.574;9.976;2022-10-16T00:28:39;6.30;;;4.90;;
14748;SDS011;7466;53.574;9.976;2022-10-16T00:31:08;5.80;;;4.20;;
14748;SDS011;7466;53.574;9.976;2022-10-16T00:33:36;7.40;;;4.67;;
14748;SDS011;7466;53.574;9.976;2022-10-16T00:36:05;4.53;;;4.07;;
14748;SDS011;7466;53.574;9.976;2022-10-16T00:38:33;4.87;;;4.10;;
14748;SDS011;7466;53.574;9.976;2022-10-16T00:41:00;7.47;;;4.50;;
14748;SDS011;7466;53.574;9.976;2022-10-16T00:43:35;5.40;;;4.87;;
14748;SDS011;7466;53.574;9.976;2022-10-16T00:46:04;7.10;;;4.50;;
14748;SDS011;7466;53.574;9.976;2022-10-16T00:48:37;7.67;;;3.83;;
14748;SDS011;7466;53.574;9.976;2022-10-16T00:51:04;4.83;;;3.63;;
14748;SDS011;7466;53.574;9.976;2022-10-16T00:53:33;4.00;;;3.00;;
14748;SDS011;7466;53.574;9.976;2022-10-16T00:56:01;5.90;;;3.00;;
14748;SDS011;7466;53.574;9.976;2022-10-16T00:58:28;5.07;;;2.90;;
14748;SDS011;7466;53.574;9.976;2022-10-16T01:00:55;5.83;;;3.30;;
14748;SDS011;7466;53.574;9.976;2022-10-16T01:03:23;3.37;;;2.90;;
14748;SDS011;7466;53.574;9.976;2022-10-16T01:05:54;5.53;;;3.13;;
14748;SDS011;7466;53.574;9.976;2022-10-16T01:08:34;3.43;;;2.87;;
14748;SDS011;7466;53.574;9.976;2022-10-16T01:11:11;3.80;;;3.07;;
14748;SDS011;7466;53.574;9.976;2022-10-16T01:13:46;4.67;;;2.80;;
14748;SDS011;7466;53.574;9.976;2022-10-16T01:16:18;3.50;;;3.20;;
14748;SDS011;7466;53.574;9.976;2022-10-16T01:18:56;4.73;;;2.50;;
14748;SDS011;7466;53.574;9.976;2022-10-16T01:21:29;4.50;;;2.50;;
14748;SDS011;7466;53.574;9.976;2022-10-16T01:24:02;6.70;;;2.73;;
14748;SDS011;7466;53.574;9.976;2022-10-16T01:29:36;6.97;;;2.83;;
14748;SDS011;7466;53.574;9.976;2022-10-16T01:32:09;2.50;;;2.30;;
14748;SDS011;7466;53.574;9.976;2022-10-16T01:34:42;7.87;;;3.10;;
14748;SDS011;7466;53.574;9.976;2022-10-16T01:37:15;4.40;;;2.73;;
14748;SDS011;7466;53.574;9.976;2022-10-16T01:39:45;5.43;;;2.63;;
14748;SDS011;7466;53.574;9.976;2022-10-16T01:42:18;3.97;;;2.70;;
14748;SDS011;7466;53.574;9.976;2022-10-16T01:44:48;5.00;;;2.63;;
14748;SDS011;7466;53.574;9.976;2022-10-16T01:47:17;6.93;;;2.90;;
14748;SDS011;7466;53.574;9.976;2022-10-16T01:49:48;5.53;;;2.60;;
14748;SDS011;7466;53.574;9.976;2022-10-16T01:52:17;2.97;;;2.67;;
14748;SDS011;7466;53.574;9.976;2022-10-16T01:54:47;4.17;;;2.70;;
14748;SDS011;7466;53.574;9.976;2022-10-16T01:57:18;4.47;;;2.80;;
14748;SDS011;7466;53.574;9.976;2022-10-16T01:59:48;3.87;;;2.70;;
14748;SDS011;7466;53.574;9.976;2022-10-16T02:02:19;5.00;;;2.60;;
14748;SDS011;7466;53.574;9.976;2022-10-16T02:04:48;2.83;;;2.43;;
14748;SDS011;7466;53.574;9.976;2022-10-16T02:07:19;3.37;;;2.57;;
14748;SDS011;7466;53.574;9.976;2022-10-16T02:09:46;6.80;;;2.73;;
14748;SDS011;7466;53.574;9.976;2022-10-16T02:12:14;5.07;;;2.60;;
14748;SDS011;7466;53.574;9.976;2022-10-16T02:14:48;5.40;;;2.37;;
14748;SDS011;7466;53.574;9.976;2022-10-16T02:17:15;3.63;;;2.60;;
14748;SDS011;7466;53.574;9.976;2022-10-16T02:19:43;3.40;;;2.47;;
14748;SDS011;7466;53.574;9.976;2022-10-16T02:22:15;3.77;;;2.60;;
14748;SDS011;7466;53.574;9.976;2022-10-16T02:24:49;3.00;;;2.30;;
14748;SDS011;7466;53.574;9.976;2022-10-16T02:27:21;5.97;;;2.43;;
14748;SDS011;7466;53.574;9.976;2022-10-16T02:29:55;3.93;;;2.50;;
14748;SDS011;7466;53.574;9.976;2022-10-16T02:32:27;2.50;;;2.17;;
14748;SDS011;7466;53.574;9.976;2022-10-16T02:34:57;4.50;;;2.37;;
14748;SDS011;7466;53.574;9.976;2022-10-16T02:37:25;5.47;;;2.60;;
14748;SDS011;7466;53.574;9.976;2022-10-16T02:39:54;2.23;;;2.03;;
14748;SDS011;7466;53.574;9.976;2022-10-16T02:42:27;4.27;;;2.30;;
14748;SDS011;7466;53.574;9.976;2022-10-16T02:44:56;4.80;;;2.20;;
14748;SDS011;7466;53.574;9.976;2022-10-16T02:47:23;4.03;;;2.10;;
14748;SDS011;7466;53.574;9.976;2022-10-16T02:49:49;5.23;;;2.13;;
14748;SDS011;7466;53.574;9.976;2022-10-16T02:52:16;2.80;;;2.17;;
14748;SDS011;7466;53.574;9.976;2022-10-16T02:54:43;2.87;;;2.30;;
14748;SDS011;7466;53.574;9.976;2022-10-16T02:57:10;7.33;;;2.40;;
14748;SDS011;7466;53.574;9.976;2022-10-16T02:59:36;5.60;;;2.30;;
14748;SDS011;7466;53.574;9.976;2022-10-16T03:02:05;4.37;;;2.23;;
14748;SDS011;7466;53.574;9.976;2022-10-16T03:04:31;3.47;;;2.43;;
14748;SDS011;7466;53.574;9.976;2022-10-16T03:06:58;10.73;;;2.33;;
14748;SDS011;7466;53.574;9.976;2022-10-16T03:09:25;5.87;;;2.57;;
14748;SDS011;7466;53.574;9.976;2022-10-16T03:11:52;3.60;;;2.33;;
14748;SDS011;7466;53.574;9.976;2022-10-16T03:14:19;4.47;;;2.20;;
14748;SDS011;7466;53.574;9.976;2022-10-16T03:16:45;5.00;;;2.37;;
14748;SDS011;7466;53.574;9.976;2022-10-16T03:19:13;5.17;;;2.37;;
14748;SDS011;7466;53.574;9.976;2022-10-16T03:21:42;3.63;;;2.13;;
14748;SDS011;7466;53.574;9.976;2022-10-16T03:24:09;2.70;;;2.20;;
14748;SDS011;7466;53.574;9.976;2022-10-16T03:26:36;2.40;;;2.20;;
14748;SDS011;7466;53.574;9.976;2022-10-16T03:29:03;4.53;;;1.87;;
14748;SDS011;7466;53.574;9.976;2022-10-16T03:31:30;4.73;;;2.00;;
14748;SDS011;7466;53.574;9.976;2022-10-16T03:33:57;4.00;;;1.90;;
14748;SDS011;7466;53.574;9.976;2022-10-16T03:36:25;6.20;;;2.20;;
14748;SDS011;7466;53.574;9.976;2022-10-16T03:38:52;3.33;;;2.10;;
14748;SDS011;7466;53.574;9.976;2022-10-16T03:41:18;3.37;;;1.93;;
14748;SDS011;7466;53.574;9.976;2022-10-16T03:43:45;4.53;;;2.30;;
14748;SDS011;7466;53.574;9.976;2022-10-16T03:46:12;2.53;;;2.00;;
14748;SDS011;7466;53.574;9.976;2022-10-16T03:48:39;6.43;;;2.30;;
14748;SDS011;7466;53.574;9.976;2022-10-16T03:51:06;6.73;;;2.40;;
14748;SDS011;7466;53.574;9.976;2022-10-16T03:53:34;4.10;;;2.10;;
14748;SDS011;7466;53.574;9.976;2022-10-16T03:56:01;3.80;;;2.00;;
14748;SDS011;7466;53.574;9.976;2022-10-16T03:58:28;2.53;;;2.33;;
14748;SDS011;7466;53.574;9.976;2022-10-16T04:00:55;5.53;;;2.13;;
14748;SDS011;7466;53.574;9.976;2022-10-16T04:03:21;3.90;;;2.50;;
14748;SDS011;7466;53.574;9.976;2022-10-16T04:05:48;5.30;;;2.50;;
14748;SDS011;7466;53.574;9.976;2022-10-16T04:08:15;3.50;;;2.87;;
14748;SDS011;7466;53.574;9.976;2022-10-16T04:10:44;3.03;;;2.20;;
14748;SDS011;7466;53.574;9.976;2022-10-16T04:13:11;5.13;;;2.30;;
14748;SDS011;7466;53.574;9.976;2022-10-16T04:15:38;3.27;;;2.20;;
14748;SDS011;7466;53.574;9.976;2022-10-16T04:18:05;4.30;;;2.10;;
14748;SDS011;7466;53.574;9.976;2022-10-16T04:20:33;4.57;;;2.40;;
14748;SDS011;7466;53.574;9.976;2022-10-16T04:23:00;4.70;;;2.00;;
14748;SDS011;7466;53.574;9.976;2022-10-16T04:25:26;3.80;;;1.80;;
14748;SDS011;7466;53.574;9.976;2022-10-16T04:27:55;5.93;;;2.57;;
14748;SDS011;7466;53.574;9.976;2022-10-16T04:30:22;3.20;;;2.07;;
14748;SDS011;7466;53.574;9.976;2022-10-16T04:32:49;4.07;;;1.97;;
14748;SDS011;7466;53.574;9.976;2022-10-16T04:35:16;3.83;;;1.80;;
14748;SDS011;7466;53.574;9.976;2022-10-16T04:37:43;4.43;;;2.30;;
14748;SDS011;7466;53.574;9.976;2022-10-16T04:40:10;3.20;;;2.40;;
14748;SDS011;7466;53.574;9.976;2022-10-16T04:42:37;3.50;;;2.40;;
14748;SDS011;7466;53.574;9.976;2022-10-16T04:45:06;5.27;;;2.30;;
14748;SDS011;7466;53.574;9.976;2022-10-16T04:47:33;4.83;;;1.87;;
14748;SDS011;7466;53.574;9.976;2022-10-16T04:50:00;3.13;;;2.10;;
14748;SDS011;7466;53.574;9.976;2022-10-16T04:52:27;5.77;;;2.03;;
14748;SDS011;7466;53.574;9.976;2022-10-16T04:54:56;4.07;;;2.20;;
14748;SDS011;7466;53.574;9.976;2022-10-16T04:57:26;6.30;;;2.40;;
14748;SDS011;7466;53.574;9.976;2022-10-16T04:59:52;4.97;;;2.40;;
14748;SDS011;7466;53.574;9.976;2022-10-16T05:02:21;3.40;;;2.33;;
14748;SDS011;7466;53.574;9.976;2022-10-16T05:04:47;5.07;;;2.47;;
14748;SDS011;7466;53.574;9.976;2022-10-16T05:07:14;3.67;;;2.67;;
14748;SDS011;7466;53.574;9.976;2022-10-16T05:09:41;6.60;;;3.10;;
14748;SDS011;7466;53.574;9.976;2022-10-16T05:12:08;4.27;;;2.70;;
14748;SDS011;7466;53.574;9.976;2022-10-16T05:14:35;4.07;;;3.07;;
14748;SDS011;7466;53.574;9.976;2022-10-16T05:17:01;6.20;;;3.23;;
14748;SDS011;7466;53.574;9.976;2022-10-16T05:19:30;4.03;;;3.07;;
14748;SDS011;7466;53.574;9.976;2022-10-16T05:21:56;3.40;;;3.00;;
14748;SDS011;7466;53.574;9.976;2022-10-16T05:24:23;3.33;;;2.50;;
14748;SDS011;7466;53.574;9.976;2022-10-16T05:26:50;4.13;;;3.20;;
14748;SDS011;7466;53.574;9.976;2022-10-16T05:29:17;4.03;;;3.37;;
14748;SDS011;7466;53.574;9.976;2022-10-16T05:31:44;3.63;;;2.63;;
14748;SDS011;7466;53.574;9.976;2022-10-16T05:34:11;6.00;;;3.13;;
14748;SDS011;7466;53.574;9.976;2022-10-16T05:36:39;8.77;;;2.80;;
14748;SDS011;7466;53.574;9.976;2022-10-16T05:39:05;5.03;;;2.93;;
14748;SDS011;7466;53.574;9.976;2022-10-16T05:41:33;3.27;;;2.60;;
14748;SDS011;7466;53.574;9.976;2022-10-16T05:43:59;5.50;;;2.70;;
14748;SDS011;7466;53.574;9.976;2022-10-16T05:46:29;5.27;;;2.80;;
14748;SDS011;7466;53.574;9.976;2022-10-16T05:48:56;3.30;;;2.33;;
14748;SDS011;7466;53.574;9.976;2022-10-16T05:51:23;3.67;;;2.40;;
14748;SDS011;7466;53.574;9.976;2022-10-16T05:53:51;3.67;;;2.53;;
14748;SDS011;7466;53.574;9.976;2022-10-16T05:56:18;4.83;;;2.40;;
14748;SDS011;7466;53.574;9.976;2022-10-16T05:58:45;6.03;;;2.73;;
14748;SDS011;7466;53.574;9.976;2022-10-16T06:01:13;4.10;;;2.37;;
14748;SDS011;7466;53.574;9.976;2022-10-16T06:03:41;6.07;;;2.50;;
14748;SDS011;7466;53.574;9.976;2022-10-16T06:06:09;6.70;;;2.47;;
14748;SDS011;7466;53.574;9.976;2022-10-16T06:08:36;5.47;;;2.20;;
14748;SDS011;7466;53.574;9.976;2022-10-16T06:11:05;4.23;;;2.57;;
14748;SDS011;7466;53.574;9.976;2022-10-16T06:13:33;4.60;;;2.50;;
14748;SDS011;7466;53.574;9.976;2022-10-16T06:16:01;5.47;;;2.87;;
14748;SDS011;7466;53.574;9.976;2022-10-16T06:18:29;5.97;;;2.27;;
14748;SDS011;7466;53.574;9.976;2022-10-16T06:20:57;3.13;;;2.53;;
14748;SDS011;7466;53.574;9.976;2022-10-16T06:23:24;4.70;;;2.27;;
14748;SDS011;7466;53.574;9.976;2022-10-16T06:25:51;7.60;;;2.77;;
14748;SDS011;7466;53.574;9.976;2022-10-16T06:28:19;3.93;;;2.53;;
14748;SDS011;7466;53.574;9.976;2022-10-16T06:30:46;5.63;;;2.80;;
14748;SDS011;7466;53.574;9.976;2022-10-16T06:33:13;3.73;;;2.70;;
14748;SDS011;7466;53.574;9.976;2022-10-16T06:35:39;7.50;;;2.83;;
14748;SDS011;7466;53.574;9.976;2022-10-16T06:38:06;4.50;;;2.50;;
14748;SDS011;7466;53.574;9.976;2022-10-16T06:40:33;6.97;;;2.40;;
14748;SDS011;7466;53.574;9.976;2022-10-16T06:43:00;5.67;;;2.60;;
14748;SDS011;7466;53.574;9.976;2022-10-16T06:45:28;3.77;;;2.80;;
14748;SDS011;7466;53.574;9.976;2022-10-16T06:47:55;5.40;;;2.87;;
14748;SDS011;7466;53.574;9.976;2022-10-16T06:50:22;6.40;;;2.93;;
14748;SDS011;7466;53.574;9.976;2022-10-16T06:52:48;6.97;;;3.50;;
14748;SDS011;7466;53.574;9.976;2022-10-16T06:55:15;6.67;;;2.83;;
14748;SDS011;7466;53.574;9.976;2022-10-16T06:57:43;4.80;;;3.10;;
14748;SDS011;7466;53.574;9.976;2022-10-16T07:00:10;5.40;;;3.13;;
14748;SDS011;7466;53.574;9.976;2022-10-16T07:02:38;3.80;;;2.90;;
14748;SDS011;7466;53.574;9.976;2022-10-16T07:05:05;6.10;;;3.33;;
14748;SDS011;7466;53.574;9.976;2022-10-16T07:07:33;5.77;;;3.00;;
14748;SDS011;7466;53.574;9.976;2022-10-16T07:09:59;5.50;;;3.50;;
14748;SDS011;7466;53.574;9.976;2022-10-16T07:12:26;3.80;;;3.27;;
14748;SDS011;7466;53.574;9.976;2022-10-16T07:14:53;2.97;;;2.77;;
14748;SDS011;7466;53.574;9.976;2022-10-16T07:17:21;4.67;;;2.83;;
14748;SDS011;7466;53.574;9.976;2022-10-16T07:19:49;3.70;;;3.07;;
14748;SDS011;7466;53.574;9.976;2022-10-16T07:22:18;3.73;;;2.70;;
14748;SDS011;7466;53.574;9.976;2022-10-16T07:24:44;5.27;;;3.40;;
14748;SDS011;7466;53.574;9.976;2022-10-16T07:27:11;6.43;;;3.67;;
14748;SDS011;7466;53.574;9.976;2022-10-16T07:29:38;6.17;;;3.63;;
14748;SDS011;7466;53.574;9.976;2022-10-16T07:32:05;5.57;;;3.50;;
14748;SDS011;7466;53.574;9.976;2022-10-16T07:34:32;5.40;;;3.73;;
14748;SDS011;7466;53.574;9.976;2022-10-16T07:37:00;3.63;;;3.20;;
14748;SDS011;7466;53.574;9.976;2022-10-16T07:39:27;4.27;;;3.30;;
14748;SDS011;7466;53.574;9.976;2022-10-16T07:41:53;5.20;;;3.50;;
14748;SDS011;7466;53.574;9.976;2022-10-16T07:44:20;4.43;;;3.63;;
14748;SDS011;7466;53.574;9.976;2022-10-16T07:46:47;7.90;;;3.40;;
14748;SDS011;7466;53.574;9.976;2022-10-16T07:49:14;5.80;;;3.50;;
14748;SDS011;7466;53.574;9.976;2022-10-16T07:51:41;4.63;;;3.30;;
14748;SDS011;7466;53.574;9.976;2022-10-16T07:54:09;5.57;;;3.30;;
14748;SDS011;7466;53.574;9.976;2022-10-16T07:56:36;3.47;;;3.27;;
14748;SDS011;7466;53.574;9.976;2022-10-16T07:59:03;4.07;;;3.20;;
14748;SDS011;7466;53.574;9.976;2022-10-16T08:01:29;4.70;;;3.90;;
14748;SDS011;7466;53.574;9.976;2022-10-16T08:03:56;4.73;;;3.23;;
14748;SDS011;7466;53.574;9.976;2022-10-16T08:06:23;6.57;;;3.33;;
14748;SDS011;7466;53.574;9.976;2022-10-16T08:08:50;4.33;;;3.53;;
14748;SDS011;7466;53.574;9.976;2022-10-16T08:11:18;4.77;;;3.37;;
14748;SDS011;7466;53.574;9.976;2022-10-16T08:13:45;4.67;;;3.43;;
14748;SDS011;7466;53.574;9.976;2022-10-16T08:16:12;5.73;;;3.37;;
14748;SDS011;7466;53.574;9.976;2022-10-16T08:18:39;3.83;;;3.43;;
14748;SDS011;7466;53.574;9.976;2022-10-16T08:21:08;3.87;;;3.57;;
14748;SDS011;7466;53.574;9.976;2022-10-16T08:23:39;4.00;;;3.60;;
14748;SDS011;7466;53.574;9.976;2022-10-16T08:26:06;3.37;;;3.00;;
14748;SDS011;7466;53.574;9.976;2022-10-16T08:28:35;5.47;;;3.43;;
14748;SDS011;7466;53.574;9.976;2022-10-16T08:31:06;3.53;;;3.10;;
14748;SDS011;7466;53.574;9.976;2022-10-16T08:33:34;4.20;;;3.20;;
14748;SDS011;7466;53.574;9.976;2022-10-16T08:36:02;3.30;;;3.10;;
14748;SDS011;7466;53.574;9.976;2022-10-16T08:38:29;3.90;;;2.70;;
14748;SDS011;7466;53.574;9.976;2022-10-16T08:40:57;3.87;;;2.90;;
14748;SDS011;7466;53.574;9.976;2022-10-16T08:43:47;4.83;;;3.50;;
14748;SDS011;7466;53.574;9.976;2022-10-16T08:46:31;3.30;;;3.00;;
14748;SDS011;7466;53.574;9.976;2022-10-16T08:49:10;4.17;;;3.20;;
14748;SDS011;7466;53.574;9.976;2022-10-16T08:51:39;4.13;;;3.20;;
14748;SDS011;7466;53.574;9.976;2022-10-16T08:54:10;3.53;;;2.90;;
14748;SDS011;7466;53.574;9.976;2022-10-16T08:56:47;5.30;;;3.10;;
14748;SDS011;7466;53.574;9.976;2022-10-16T08:59:15;3.23;;;2.97;;
14748;SDS011;7466;53.574;9.976;2022-10-16T09:01:44;5.07;;;3.17;;
14748;SDS011;7466;53.574;9.976;2022-10-16T09:04:20;4.20;;;2.60;;
14748;SDS011;7466;53.574;9.976;2022-10-16T09:07:01;5.03;;;2.77;;
14748;SDS011;7466;53.574;9.976;2022-10-16T09:09:40;4.07;;;2.93;;
14748;SDS011;7466;53.574;9.976;2022-10-16T09:12:25;5.40;;;2.90;;
14748;SDS011;7466;53.574;9.976;2022-10-16T09:15:02;3.87;;;2.53;;
14748;SDS011;7466;53.574;9.976;2022-10-16T09:17:39;2.83;;;2.33;;
14748;SDS011;7466;53.574;9.976;2022-10-16T09:20:16;3.73;;;2.63;;
14748;SDS011;7466;53.574;9.976;2022-10-16T09:22:53;3.07;;;2.70;;
14748;SDS011;7466;53.574;9.976;2022-10-16T09:25:26;3.47;;;2.33;;
14748;SDS011;7466;53.574;9.976;2022-10-16T09:27:53;3.30;;;2.10;;
14748;SDS011;7466;53.574;9.976;2022-10-16T09:30:23;2.80;;;2.30;;
14748;SDS011;7466;53.574;9.976;2022-10-16T09:32:54;5.43;;;2.47;;
14748;SDS011;7466;53.574;9.976;2022-10-16T09:35:26;3.80;;;2.10;;
14748;SDS011;7466;53.574;9.976;2022-10-16T09:37:58;2.53;;;1.90;;
14748;SDS011;7466;53.574;9.976;2022-10-16T09:40:26;4.10;;;1.87;;
14748;SDS011;7466;53.574;9.976;2022-10-16T09:43:01;2.83;;;1.90;;
14748;SDS011;7466;53.574;9.976;2022-10-16T09:45:34;3.73;;;1.50;;
14748;SDS011;7466;53.574;9.976;2022-10-16T09:48:01;2.20;;;1.67;;
14748;SDS011;7466;53.574;9.976;2022-10-16T09:50:36;3.70;;;1.50;;
14748;SDS011;7466;53.574;9.976;2022-10-16T09:53:04;2.57;;;1.67;;
14748;SDS011;7466;53.574;9.976;2022-10-16T09:55:32;3.70;;;1.60;;
14748;SDS011;7466;53.574;9.976;2022-10-16T09:57:58;4.47;;;1.73;;
14748;SDS011;7466;53.574;9.976;2022-10-16T10:00:25;4.93;;;2.00;;
14748;SDS011;7466;53.574;9.976;2022-10-16T10:02:53;5.17;;;1.93;;
14748;SDS011;7466;53.574;9.976;2022-10-16T10:05:21;4.23;;;2.10;;
14748;SDS011;7466;53.574;9.976;2022-10-16T10:07:54;2.77;;;1.80;;
14748;SDS011;7466;53.574;9.976;2022-10-16T10:10:23;2.90;;;2.00;;
14748;SDS011;7466;53.574;9.976;2022-10-16T10:12:52;4.10;;;2.13;;
14748;SDS011;7466;53.574;9.976;2022-10-16T10:15:20;4.13;;;1.97;;
14748;SDS011;7466;53.574;9.976;2022-10-16T10:17:49;3.83;;;2.30;;
14748;SDS011;7466;53.574;9.976;2022-10-16T10:20:27;2.97;;;1.87;;
14748;SDS011;7466;53.574;9.976;2022-10-16T10:22:56;3.37;;;2.00;;
14748;SDS011;7466;53.574;9.976;2022-10-16T10:31:17;6.07;;;1.93;;
14748;SDS011;7466;53.574;9.976;2022-10-16T10:33:53;3.07;;;1.50;;
14748;SDS011;7466;53.574;9.976;2022-10-16T10:36:29;3.47;;;1.90;;
14748;SDS011;7466;53.574;9.976;2022-10-16T10:38:59;3.73;;;1.70;;
14748;SDS011;7466;53.574;9.976;2022-10-16T10:41:40;2.90;;;1.60;;
14748;SDS011;7466;53.574;9.976;2022-10-16T10:44:27;3.47;;;1.97;;
14748;SDS011;7466;53.574;9.976;2022-10-16T10:47:05;2.17;;;1.30;;
14748;SDS011;7466;53.574;9.976;2022-10-16T10:49:46;1.30;;;1.20;;
14748;SDS011;7466;53.574;9.976;2022-10-16T10:52:29;4.47;;;1.73;;
14748;SDS011;7466;53.574;9.976;2022-10-16T10:55:09;4.33;;;1.77;;
14748;SDS011;7466;53.574;9.976;2022-10-16T10:57:43;3.83;;;1.37;;
14748;SDS011;7466;53.574;9.976;2022-10-16T11:00:21;3.20;;;1.60;;
14748;SDS011;7466;53.574;9.976;2022-10-16T11:02:56;3.73;;;1.57;;
14748;SDS011;7466;53.574;9.976;2022-10-16T11:05:33;3.17;;;1.47;;
14748;SDS011;7466;53.574;9.976;2022-10-16T11:08:08;3.43;;;1.60;;
14748;SDS011;7466;53.574;9.976;2022-10-16T11:10:42;1.53;;;1.30;;
14748;SDS011;7466;53.574;9.976;2022-10-16T11:13:19;4.07;;;1.30;;
14748;SDS011;7466;53.574;9.976;2022-10-16T11:15:52;3.77;;;1.47;;
14748;SDS011;7466;53.574;9.976;2022-10-16T11:18:25;2.77;;;1.53;;
14748;SDS011;7466;53.574;9.976;2022-10-16T11:20:57;2.53;;;1.27;;
14748;SDS011;7466;53.574;9.976;2022-10-16T11:23:30;4.13;;;1.30;;
14748;SDS011;7466;53.574;9.976;2022-10-16T11:26:04;3.17;;;1.40;;
14748;SDS011;7466;53.574;9.976;2022-10-16T11:28:40;5.77;;;1.70;;
14748;SDS011;7466;53.574;9.976;2022-10-16T11:31:13;4.33;;;1.63;;
14748;SDS011;7466;53.574;9.976;2022-10-16T11:33:46;3.63;;;1.63;;
14748;SDS011;7466;53.574;9.976;2022-10-16T11:36:19;4.37;;;1.40;;
14748;SDS011;7466;53.574;9.976;2022-10-16T11:38:53;4.17;;;1.10;;
14748;SDS011;7466;53.574;9.976;2022-10-16T11:41:27;4.30;;;1.40;;
14748;SDS011;7466;53.574;9.976;2022-10-16T11:44:02;3.80;;;1.43;;
14748;SDS011;7466;53.574;9.976;2022-10-16T11:46:40;3.20;;;1.23;;
14748;SDS011;7466;53.574;9.976;2022-10-16T11:49:12;3.63;;;1.33;;
14748;SDS011;7466;53.574;9.976;2022-10-16T11:51:42;1.50;;;1.20;;
14748;SDS011;7466;53.574;9.976;2022-10-16T11:54:16;4.20;;;1.40;;
14748;SDS011;7466;53.574;9.976;2022-10-16T11:56:47;3.33;;;1.30;;
14748;SDS011;7466;53.574;9.976;2022-10-16T11:59:18;4.50;;;1.07;;
14748;SDS011;7466;53.574;9.976;2022-10-16T12:01:52;4.97;;;1.13;;
14748;SDS011;7466;53.574;9.976;2022-10-16T12:04:26;6.60;;;1.57;;
14748;SDS011;7466;53.574;9.976;2022-10-16T12:07:02;4.77;;;2.00;;
14748;SDS011;7466;53.574;9.976;2022-10-16T12:09:34;2.00;;;1.33;;
14748;SDS011;7466;53.574;9.976;2022-10-16T12:12:04;3.20;;;1.40;;
14748;SDS011;7466;53.574;9.976;2022-10-16T12:14:59;3.70;;;1.40;;
14748;SDS011;7466;53.574;9.976;2022-10-16T12:17:27;3.53;;;1.30;;
14748;SDS011;7466;53.574;9.976;2022-10-16T12:20:12;2.47;;;1.27;;
14748;SDS011;7466;53.574;9.976;2022-10-16T12:22:47;2.53;;;1.43;;
14748;SDS011;7466;53.574;9.976;2022-10-16T12:25:21;2.73;;;1.50;;
14748;SDS011;7466;53.574;9.976;2022-10-16T12:27:56;3.37;;;1.33;;
14748;SDS011;7466;53.574;9.976;2022-10-16T12:30:26;7.63;;;1.53;;
14748;SDS011;7466;53.574;9.976;2022-10-16T12:32:54;4.40;;;1.40;;
14748;SDS011;7466;53.574;9.976;2022-10-16T12:35:22;5.33;;;1.60;;
14748;SDS011;7466;53.574;9.976;2022-10-16T12:37:52;5.33;;;1.77;;
14748;SDS011;7466;53.574;9.976;2022-10-16T12:40:25;4.80;;;2.10;;
14748;SDS011;7466;53.574;9.976;2022-10-16T12:42:54;2.47;;;1.27;;
14748;SDS011;7466;53.574;9.976;2022-10-16T12:45:26;4.80;;;1.40;;
14748;SDS011;7466;53.574;9.976;2022-10-16T12:47:56;3.23;;;1.43;;
14748;SDS011;7466;53.574;9.976;2022-10-16T12:50:24;3.17;;;1.40;;
14748;SDS011;7466;53.574;9.976;2022-10-16T12:52:55;5.33;;;1.60;;
14748;SDS011;7466;53.574;9.976;2022-10-16T12:55:22;5.20;;;1.33;;
14748;SDS011;7466;53.574;9.976;2022-10-16T12:58:02;3.45;;;1.10;;
14748;SDS011;7466;53.574;9.976;2022-10-16T13:00:50;5.50;;;1.55;;
14748;SDS011;7466;53.574;9.976;2022-10-16T13:06:30;2.92;;;1.40;;
14748;SDS011;7466;53.574;9.976;2022-10-16T13:09:14;4.97;;;1.50;;
14748;SDS011;7466;53.574;9.976;2022-10-16T13:12:05;2.03;;;1.13;;
14748;SDS011;7466;53.574;9.976;2022-10-16T13:14:47;3.17;;;1.30;;
14748;SDS011;7466;53.574;9.976;2022-10-16T13:17:32;3.65;;;1.30;;
14748;SDS011;7466;53.574;9.976;2022-10-16T13:20:06;4.00;;;1.30;;
14748;SDS011;7466;53.574;9.976;2022-10-16T13:22:45;3.58;;;1.63;;
14748;SDS011;7466;53.574;9.976;2022-10-16T13:25:20;3.88;;;1.40;;
14748;SDS011;7466;53.574;9.976;2022-10-16T13:27:54;4.90;;;1.50;;
14748;SDS011;7466;53.574;9.976;2022-10-16T13:30:32;4.47;;;1.40;;
14748;SDS011;7466;53.574;9.976;2022-10-16T13:33:03;3.22;;;1.40;;
14748;SDS011;7466;53.574;9.976;2022-10-16T13:35:34;2.58;;;1.35;;
14748;SDS011;7466;53.574;9.976;2022-10-16T13:38:05;3.83;;;1.30;;
14748;SDS011;7466;53.574;9.976;2022-10-16T13:40:47;3.50;;;1.60;;
14748;SDS011;7466;53.574;9.976;2022-10-16T13:43:19;2.58;;;1.38;;
14748;SDS011;7466;53.574;9.976;2022-10-16T13:45:54;4.00;;;1.50;;
14748;SDS011;7466;53.574;9.976;2022-10-16T13:48:22;5.03;;;1.80;;
14748;SDS011;7466;53.574;9.976;2022-10-16T13:50:58;3.50;;;1.50;;
14748;SDS011;7466;53.574;9.976;2022-10-16T13:53:30;4.55;;;1.80;;
14748;SDS011;7466;53.574;9.976;2022-10-16T13:55:58;5.32;;;1.73;;
14748;SDS011;7466;53.574;9.976;2022-10-16T13:58:26;3.15;;;1.45;;
14748;SDS011;7466;53.574;9.976;2022-10-16T14:00:54;2.75;;;1.40;;
14748;SDS011;7466;53.574;9.976;2022-10-16T14:03:23;2.97;;;1.33;;
14748;SDS011;7466;53.574;9.976;2022-10-16T14:05:51;2.93;;;1.40;;
14748;SDS011;7466;53.574;9.976;2022-10-16T14:08:19;2.90;;;1.40;;
14748;SDS011;7466;53.574;9.976;2022-10-16T14:10:48;5.37;;;1.40;;
14748;SDS011;7466;53.574;9.976;2022-10-16T14:13:17;4.77;;;1.47;;
14748;SDS011;7466;53.574;9.976;2022-10-16T14:15:46;3.87;;;1.40;;
14748;SDS011;7466;53.574;9.976;2022-10-16T14:18:18;3.27;;;1.33;;
14748;SDS011;7466;53.574;9.976;2022-10-16T14:20:46;6.70;;;1.70;;
14748;SDS011;7466;53.574;9.976;2022-10-16T14:23:19;3.47;;;1.40;;
14748;SDS011;7466;53.574;9.976;2022-10-16T14:25:48;4.27;;;1.20;;
14748;SDS011;7466;53.574;9.976;2022-10-16T14:28:16;3.37;;;1.50;;
14748;SDS011;7466;53.574;9.976;2022-10-16T14:30:51;4.87;;;1.73;;
14748;SDS011;7466;53.574;9.976;2022-10-16T14:33:22;4.57;;;1.80;;
14748;SDS011;7466;53.574;9.976;2022-10-16T14:38:37;4.23;;;1.50;;
14748;SDS011;7466;53.574;9.976;2022-10-16T14:41:05;4.33;;;1.50;;
14748;SDS011;7466;53.574;9.976;2022-10-16T14:43:32;3.27;;;1.47;;
14748;SDS011;7466;53.574;9.976;2022-10-16T14:46:02;4.63;;;1.40;;
14748;SDS011;7466;53.574;9.976;2022-10-16T14:48:34;6.40;;;1.90;;
14748;SDS011;7466;53.574;9.976;2022-10-16T14:51:01;6.90;;;1.60;;
14748;SDS011;7466;53.574;9.976;2022-10-16T14:53:27;2.70;;;1.60;;
14748;SDS011;7466;53.574;9.976;2022-10-16T14:55:54;5.33;;;1.57;;
14748;SDS011;7466;53.574;9.976;2022-10-16T14:58:21;5.33;;;1.70;;
14748;SDS011;7466;53.574;9.976;2022-10-16T15:00:50;6.00;;;1.50;;
14748;SDS011;7466;53.574;9.976;2022-10-16T15:03:17;5.77;;;1.70;;
14748;SDS011;7466;53.574;9.976;2022-10-16T15:05:45;6.30;;;1.73;;
14748;SDS011;7466;53.574;9.976;2022-10-16T15:08:11;3.67;;;1.50;;
14748;SDS011;7466;53.574;9.976;2022-10-16T15:10:40;3.97;;;1.67;;
14748;SDS011;7466;53.574;9.976;2022-10-16T15:13:09;5.27;;;1.80;;
14748;SDS011;7466;53.574;9.976;2022-10-16T15:15:39;4.90;;;1.63;;
14748;SDS011;7466;53.574;9.976;2022-10-16T15:18:09;5.37;;;1.80;;
14748;SDS011;7466;53.574;9.976;2022-10-16T15:20:36;4.27;;;1.73;;
14748;SDS011;7466;53.574;9.976;2022-10-16T15:23:08;6.33;;;1.73;;
14748;SDS011;7466;53.574;9.976;2022-10-16T15:25:41;5.63;;;1.47;;
14748;SDS011;7466;53.574;9.976;2022-10-16T15:28:09;5.63;;;1.43;;
14748;SDS011;7466;53.574;9.976;2022-10-16T15:30:37;6.67;;;1.37;;
14748;SDS011;7466;53.574;9.976;2022-10-16T15:33:05;4.40;;;1.40;;